Time;durP1;ratioP1;P1;durP2;ratioP2;P2;SDS_P1;SDS_P2;PMS_P1;PMS_P2;Temp;Humidity;BMP_temperature;BMP_pressure;BME280_temperature;BME280_humidity;BME280_pressure;Samples;Min_cycle;Max_cycle;Signal;HPM_P1;HPM_P2
2023/07/10 00:01:24;;;;;;;6.25;3.53;;;;;;;18.08;98.40;102094.78;4997972;28;20030;-85
2023/07/10 00:03:50;;;;;;;6.13;3.45;;;;;;;18.10;98.67;102087.59;5002793;28;20040;-84
2023/07/10 00:06:16;;;;;;;4.45;3.35;;;;;;;18.10;99.14;102077.88;4999449;28;20037;-85
2023/07/10 00:08:42;;;;;;;2.78;2.58;;;;;;;18.13;98.95;102075.03;4998585;28;20045;-84
2023/07/10 00:11:19;;;;;;;3.22;3.03;;;;;;;18.15;98.43;102081.09;4997097;28;20260;-85
2023/07/10 00:13:46;;;;;;;5.15;3.35;;;;;;;18.13;98.22;102088.28;4979835;28;20026;-84
2023/07/10 00:16:20;;;;;;;5.00;3.60;;;;;;;18.13;98.33;102084.78;4997116;28;20310;-84
2023/07/10 00:18:46;;;;;;;5.70;3.78;;;;;;;18.10;98.46;102079.66;5010010;28;20112;-84
2023/07/10 00:21:11;;;;;;;4.15;3.33;;;;;;;18.10;98.78;102098.19;5002466;28;20149;-84
2023/07/10 00:23:37;;;;;;;4.93;2.92;;;;;;;18.11;98.68;102100.78;4997559;28;20034;-84
2023/07/10 00:26:11;;;;;;;7.03;4.00;;;;;;;18.13;98.63;102090.09;4996971;28;20144;-84
2023/07/10 00:28:37;;;;;;;4.45;2.95;;;;;;;18.15;98.24;102090.88;4979747;28;20049;-85
2023/07/10 00:31:03;;;;;;;6.90;3.28;;;;;;;18.17;97.92;102092.50;4996659;28;20033;-85
2023/07/10 00:33:28;;;;;;;3.88;2.97;;;;;;;18.20;97.68;102083.53;4981809;28;20270;-85
2023/07/10 00:35:53;;;;;;;3.72;2.90;;;;;;;18.21;97.32;102086.09;4998672;28;20022;-84
2023/07/10 00:38:25;;;;;;;4.80;2.85;;;;;;;18.21;96.80;102080.81;4998332;28;20236;-85
2023/07/10 00:40:50;;;;;;;2.97;2.30;;;;;;;18.22;96.36;102086.94;4998683;28;20278;-84
2023/07/10 00:43:27;;;;;;;3.03;2.13;;;;;;;18.24;95.73;102087.72;4979331;28;20066;-85
2023/07/10 00:45:55;;;;;;;2.35;2.03;;;;;;;18.22;95.13;102082.50;4978166;28;20049;-85
2023/07/10 00:48:36;;;;;;;4.10;1.90;;;;;;;18.22;94.92;102086.94;4979983;28;20349;-84
2023/07/10 00:51:06;;;;;;;2.10;1.90;;;;;;;18.22;94.53;102081.66;4978215;28;20050;-84
2023/07/10 00:53:38;;;;;;;3.05;2.22;;;;;;;18.22;94.42;102084.31;4968578;28;20037;-85
2023/07/10 00:56:12;;;;;;;2.15;1.92;;;;;;;18.20;94.04;102089.69;4978379;28;20093;-84
2023/07/10 00:58:44;;;;;;;3.63;2.53;;;;;;;18.20;93.68;102088.84;4962503;28;20032;-84
2023/07/10 01:01:15;;;;;;;2.30;2.10;;;;;;;18.20;93.26;102087.03;4977172;28;20042;-84
2023/07/10 01:03:43;;;;;;;3.53;2.17;;;;;;;18.19;93.19;102081.81;4997229;28;20252;-84
2023/07/10 01:06:14;;;;;;;3.58;2.30;;;;;;;18.18;92.98;102080.09;4979482;28;20077;-84
2023/07/10 01:08:43;;;;;;;5.35;2.58;;;;;;;18.16;92.89;102076.69;4977526;28;20069;-85
2023/07/10 01:11:09;;;;;;;3.15;2.00;;;;;;;18.16;92.93;102080.19;4995224;28;20222;-84
2023/07/10 01:13:38;;;;;;;4.80;2.63;;;;;;;18.14;92.98;102082.06;4995666;28;20035;-85
2023/07/10 01:16:04;;;;;;;3.25;1.98;;;;;;;18.12;92.75;102085.72;4980387;28;20259;-85
2023/07/10 01:18:31;;;;;;;2.33;2.13;;;;;;;18.11;92.89;102076.06;4995395;28;20148;-85
2023/07/10 01:21:24;;;;;;;5.03;2.80;;;;;;;18.08;92.89;102084.16;4968395;28;20073;-85
2023/07/10 01:23:50;;;;;;;3.45;2.47;;;;;;;18.07;92.90;102085.13;4986339;28;20396;-85
2023/07/10 01:26:16;;;;;;;4.47;2.50;;;;;;;18.03;92.95;102087.09;4995964;28;20030;-84
2023/07/10 01:28:41;;;;;;;4.13;2.80;;;;;;;18.01;93.50;102089.81;4978073;28;20034;-84
2023/07/10 01:31:10;;;;;;;4.35;2.80;;;;;;;17.99;92.94;102088.16;4995531;28;20378;-84
2023/07/10 01:33:43;;;;;;;2.45;2.25;;;;;;;17.98;93.11;102094.41;4981502;28;20244;-84
2023/07/10 01:36:12;;;;;;;3.38;2.40;;;;;;;17.97;93.02;102082.09;4996968;28;20348;-84
2023/07/10 01:38:43;;;;;;;3.42;2.42;;;;;;;17.96;93.00;102077.72;5006064;28;20463;-85
2023/07/10 01:41:29;;;;;;;4.00;2.40;;;;;;;17.94;92.64;102075.16;4958858;28;20029;-85
2023/07/10 01:43:55;;;;;;;10.35;2.75;;;;;;;17.92;92.64;102081.47;4985548;28;20379;-85
2023/07/10 01:46:23;;;;;;;6.38;2.17;;;;;;;17.89;92.81;102079.00;4995984;28;20426;-84
2023/07/10 01:48:50;;;;;;;;;;;;;;;17.86;92.71;102074.69;4978647;28;20038;-85
2023/07/10 01:51:17;;;;;;;2.22;2.00;;;;;;;17.85;92.74;102075.63;4977794;28;20392;-85
2023/07/10 01:53:45;;;;;;;3.00;2.03;;;;;;;17.83;92.75;102070.38;4962119;28;20127;-84
2023/07/10 01:56:10;;;;;;;3.13;1.92;;;;;;;17.83;92.77;102074.84;4957343;28;20078;-85
2023/07/10 01:58:36;;;;;;;2.80;1.95;;;;;;;17.83;92.55;102077.47;4965058;28;20042;-84
2023/07/10 02:01:01;;;;;;;2.20;2.00;;;;;;;17.83;92.33;102075.69;4967078;28;20348;-84
2023/07/10 02:03:27;;;;;;;3.65;2.33;;;;;;;17.83;92.22;102083.63;4964458;28;20049;-84
2023/07/10 02:05:52;;;;;;;4.03;1.77;;;;;;;17.80;92.01;102075.81;4960531;28;20065;-84
2023/07/10 02:08:17;;;;;;;5.20;1.98;;;;;;;17.79;92.17;102076.78;4961124;28;20054;-85
2023/07/10 02:10:43;;;;;;;1.77;1.63;;;;;;;17.77;92.43;102075.13;4990262;28;20038;-84
2023/07/10 02:13:08;;;;;;;9.25;2.03;;;;;;;17.74;92.50;102068.22;4980650;28;20045;-85
2023/07/10 02:15:33;;;;;;;1.75;1.60;;;;;;;17.72;92.68;102074.50;5003865;28;20030;-85
2023/07/10 02:17:59;;;;;;;3.42;2.10;;;;;;;17.68;92.48;102073.81;4976948;28;20046;-85
2023/07/10 02:20:24;;;;;;;2.17;1.88;;;;;;;17.65;93.00;102064.22;4985411;28;20035;-85
2023/07/10 02:22:51;;;;;;;1.65;1.40;;;;;;;17.64;93.16;102066.97;4961948;28;20023;-85
2023/07/10 02:25:16;;;;;;;5.07;1.80;;;;;;;17.62;93.28;102069.69;4976575;28;20034;-85
2023/07/10 02:27:41;;;;;;;3.22;1.40;;;;;;;17.62;93.24;102063.53;4992282;28;20058;-85
2023/07/10 02:30:07;;;;;;;2.63;1.63;;;;;;;17.61;93.36;102062.69;4974569;28;20034;-85
2023/07/10 02:32:32;;;;;;;1.70;1.42;;;;;;;17.61;93.40;102059.19;4978092;28;20049;-85
2023/07/10 02:34:58;;;;;;;3.70;1.60;;;;;;;17.61;93.14;102052.09;4991671;28;20341;-85
2023/07/10 02:37:23;;;;;;;3.72;1.77;;;;;;;17.59;93.73;102047.78;4996706;28;20268;-85
2023/07/10 02:39:49;;;;;;;2.55;1.73;;;;;;;17.58;93.68;102048.75;4987110;28;20034;-85
2023/07/10 02:42:14;;;;;;;4.60;1.60;;;;;;;17.57;93.66;102053.19;4995220;28;20026;-85
2023/07/10 02:44:40;;;;;;;3.20;1.70;;;;;;;17.55;93.90;102047.09;4977832;28;20034;-85
2023/07/10 02:47:05;;;;;;;5.55;2.13;;;;;;;17.56;93.75;102053.25;4977294;28;20314;-85
2023/07/10 02:49:31;;;;;;;3.53;1.60;;;;;;;17.55;93.62;102055.03;4995727;28;20038;-85
2023/07/10 02:51:56;;;;;;;3.28;1.33;;;;;;;17.54;93.93;102055.97;4977580;28;20284;-85
2023/07/10 02:54:21;;;;;;;3.83;1.95;;;;;;;17.53;94.21;102053.41;4977595;28;20077;-85
2023/07/10 02:56:47;;;;;;;2.90;1.50;;;;;;;17.53;93.91;102056.06;4976813;28;20026;-85
2023/07/10 02:59:12;;;;;;;5.10;1.88;;;;;;;17.50;94.29;102049.13;4987361;28;20038;-84
2023/07/10 03:01:38;;;;;;;2.83;1.58;;;;;;;17.49;94.17;102052.69;4965945;28;20054;-84
2023/07/10 03:04:03;;;;;;;3.75;1.70;;;;;;;17.46;93.95;102061.69;5000507;28;20276;-84
2023/07/10 03:06:29;;;;;;;4.57;1.65;;;;;;;17.45;94.66;102067.88;4974794;28;20057;-85
2023/07/10 03:08:54;;;;;;;2.85;1.98;;;;;;;17.44;94.58;102066.19;4967019;28;20042;-84
2023/07/10 03:11:21;;;;;;;2.10;1.42;;;;;;;17.44;94.43;102070.63;4980509;28;20088;-84
2023/07/10 03:13:46;;;;;;;2.83;1.55;;;;;;;17.43;94.36;102071.56;4998228;28;20049;-84
2023/07/10 03:16:14;;;;;;;3.80;2.10;;;;;;;17.41;94.68;102073.44;4978445;28;20022;-84
2023/07/10 03:18:40;;;;;;;2.58;1.58;;;;;;;17.38;94.94;102077.06;4980865;28;20040;-85
2023/07/10 03:21:06;;;;;;;2.92;1.70;;;;;;;17.38;95.02;102074.44;4980068;28;20105;-84
2023/07/10 03:23:32;;;;;;;4.07;1.80;;;;;;;17.37;95.31;102075.38;4991816;28;20315;-84
2023/07/10 03:25:57;;;;;;;2.25;1.58;;;;;;;17.37;95.46;102083.31;4966137;28;20046;-85
2023/07/10 03:28:23;;;;;;;2.97;1.60;;;;;;;17.37;95.47;102077.16;4973322;28;20026;-84
2023/07/10 03:30:48;;;;;;;4.82;1.92;;;;;;;17.37;95.45;102085.09;4979911;28;20249;-84
2023/07/10 03:33:16;;;;;;;2.55;1.63;;;;;;;17.36;95.55;102080.75;4989643;28;20454;-84
2023/07/10 03:35:42;;;;;;;1.77;1.40;;;;;;;17.36;95.44;102084.25;4999974;28;20046;-85
2023/07/10 03:38:08;;;;;;;1.70;1.60;;;;;;;17.35;95.65;102087.81;5017483;28;20050;-84
2023/07/10 03:40:34;;;;;;;3.33;1.45;;;;;;;17.36;95.45;102096.63;4984477;28;20030;-84
2023/07/10 03:42:59;;;;;;;2.90;1.50;;;;;;;17.36;94.96;102086.03;4997647;28;20133;-85
2023/07/10 03:45:25;;;;;;;3.05;1.73;;;;;;;17.36;95.35;102084.25;4980578;28;20064;-84
2023/07/10 03:47:50;;;;;;;5.63;1.77;;;;;;;17.36;95.14;102084.25;4980363;28;20034;-84
2023/07/10 03:50:18;;;;;;;2.97;1.80;;;;;;;17.36;95.05;102078.09;4980505;28;20061;-84
2023/07/10 03:52:43;;;;;;;3.25;1.45;;;;;;;17.35;95.21;102087.81;4980444;28;20048;-84
2023/07/10 03:55:08;;;;;;;3.90;1.67;;;;;;;17.33;95.36;102092.31;4997028;28;20062;-84
2023/07/10 03:57:34;;;;;;;4.03;1.95;;;;;;;17.33;95.27;102097.63;4997783;28;20041;-84
2023/07/10 03:59:59;;;;;;;4.55;2.20;;;;;;;17.31;95.58;102107.44;4997829;28;20038;-84
2023/07/10 04:02:24;;;;;;;3.08;1.70;;;;;;;17.30;95.75;102097.78;4997730;28;20033;-84
2023/07/10 04:04:50;;;;;;;3.60;1.70;;;;;;;17.32;95.45;102092.41;4985885;28;20050;-84
2023/07/10 04:07:17;;;;;;;2.33;1.65;;;;;;;17.30;95.83;102108.38;4975101;28;20027;-84
2023/07/10 04:09:43;;;;;;;2.10;1.70;;;;;;;17.30;95.70;102118.09;4971970;28;20053;-84
2023/07/10 04:12:08;;;;;;;3.03;1.48;;;;;;;17.31;95.46;102114.53;4977051;28;20029;-84
2023/07/10 04:14:37;;;;;;;3.38;1.85;;;;;;;17.31;95.61;102114.53;4993415;28;20119;-85
2023/07/10 04:17:03;;;;;;;3.05;1.60;;;;;;;17.32;95.48;102116.22;4968795;28;20218;-84
2023/07/10 04:19:29;;;;;;;2.92;1.58;;;;;;;17.30;95.61;102124.28;4984395;28;20030;-84
2023/07/10 04:21:54;;;;;;;2.90;1.65;;;;;;;17.29;95.84;102124.34;4995443;28;20565;-84
2023/07/10 04:24:20;;;;;;;4.35;1.77;;;;;;;17.27;96.00;102124.41;4983082;28;20049;-84
2023/07/10 04:26:46;;;;;;;3.10;1.75;;;;;;;17.26;96.02;102127.97;4979270;28;20026;-84
2023/07/10 04:29:12;;;;;;;3.85;1.90;;;;;;;17.25;96.26;102132.41;4981094;28;20383;-84
2023/07/10 04:31:37;;;;;;;3.88;1.58;;;;;;;17.24;96.25;102122.75;4980052;28;20031;-85
2023/07/10 04:34:03;;;;;;;6.18;1.88;;;;;;;17.24;96.36;102122.75;4962828;28;20240;-84
2023/07/10 04:36:28;;;;;;;3.97;1.80;;;;;;;17.27;96.26;102119.13;4996857;28;20064;-84
2023/07/10 04:38:53;;;;;;;3.70;1.58;;;;;;;17.27;96.48;102127.06;4974070;28;20202;-84
2023/07/10 04:41:21;;;;;;;4.30;1.77;;;;;;;17.30;96.24;102131.34;4996988;28;20042;-84
2023/07/10 04:43:47;;;;;;;4.18;1.80;;;;;;;17.29;96.22;102125.19;4995017;28;20049;-84
2023/07/10 04:46:15;;;;;;;3.78;1.45;;;;;;;17.31;96.19;102122.47;4995747;28;20033;-84
2023/07/10 04:48:42;;;;;;;2.65;1.50;;;;;;;17.31;96.14;102120.66;4978196;28;20026;-84
2023/07/10 04:51:09;;;;;;;4.43;1.83;;;;;;;17.32;95.93;102124.16;4995890;28;20241;-84
2023/07/10 04:53:35;;;;;;;3.10;1.65;;;;;;;17.33;95.99;102128.53;4997274;28;20360;-84
2023/07/10 04:56:02;;;;;;;2.20;1.48;;;;;;;17.34;95.82;102128.47;4981949;28;20045;-84
2023/07/10 04:58:28;;;;;;;3.55;1.70;;;;;;;17.35;95.95;102129.31;4977145;28;20707;-85
2023/07/10 05:00:56;;;;;;;4.00;1.77;;;;;;;17.36;95.68;102123.09;4973609;28;20122;-84
2023/07/10 05:03:22;;;;;;;2.83;1.63;;;;;;;17.37;96.26;102122.16;4997519;28;20109;-84
2023/07/10 05:05:55;;;;;;;5.47;1.88;;;;;;;17.36;95.72;102120.47;5002820;28;20340;-84
2023/07/10 05:08:24;;;;;;;6.80;2.30;;;;;;;17.35;96.04;102124.03;4978609;28;20121;-84
2023/07/10 05:10:54;;;;;;;;;;;;;;;17.34;96.44;102123.19;4994453;28;20069;-84
2023/07/10 05:13:21;;;;;;;3.35;1.88;;;;;;;17.35;96.45;102126.69;4977983;28;20227;-84
2023/07/10 05:15:47;;;;;;;3.88;1.70;;;;;;;17.36;96.38;102125.75;4977810;28;20033;-84
2023/07/10 05:18:13;;;;;;;3.85;1.95;;;;;;;17.37;96.09;102138.03;4970096;28;20114;-84
2023/07/10 05:20:40;;;;;;;4.72;2.05;;;;;;;17.40;95.94;102133.47;4997970;28;20277;-84
2023/07/10 05:23:06;;;;;;;5.78;2.45;;;;;;;17.42;95.98;102128.94;4974880;28;20217;-84
2023/07/10 05:25:31;;;;;;;4.22;2.00;;;;;;;17.43;95.57;102128.03;4976653;28;20033;-85
2023/07/10 05:28:01;;;;;;;5.55;1.85;;;;;;;17.45;95.75;102122.66;4959317;28;20026;-89
2023/07/10 05:30:28;;;;;;;4.32;1.35;;;;;;;17.46;95.49;102122.59;4987421;28;20273;-85
2023/07/10 05:32:54;;;;;;;4.18;2.00;;;;;;;17.48;95.55;102129.56;4976306;28;20043;-84
2023/07/10 05:35:19;;;;;;;2.92;1.92;;;;;;;17.49;95.79;102134.81;4983666;28;20023;-84
2023/07/10 05:37:45;;;;;;;2.40;1.95;;;;;;;17.50;95.99;102133.88;4984896;28;20347;-84
2023/07/10 05:40:10;;;;;;;4.50;2.20;;;;;;;17.52;95.84;102132.00;4977745;28;20027;-84
2023/07/10 05:42:38;;;;;;;7.18;2.17;;;;;;;17.51;95.82;102135.59;4959311;28;20464;-85
2023/07/10 05:45:05;;;;;;;4.85;1.85;;;;;;;17.54;96.20;102137.25;4983980;28;20080;-84
2023/07/10 05:47:30;;;;;;;3.60;1.80;;;;;;;17.54;96.31;102138.09;4978418;28;20323;-84
2023/07/10 05:49:55;;;;;;;6.10;2.13;;;;;;;17.57;95.89;102139.72;4977479;28;20030;-84
2023/07/10 05:52:21;;;;;;;6.57;2.63;;;;;;;17.58;95.87;102139.66;4991973;28;20034;-84
2023/07/10 05:54:46;;;;;;;5.00;1.88;;;;;;;17.59;95.59;102140.50;4972183;28;20386;-85
2023/07/10 05:57:11;;;;;;;4.78;1.75;;;;;;;17.61;95.26;102143.94;4995952;28;20038;-84
2023/07/10 05:59:37;;;;;;;6.25;1.92;;;;;;;17.63;95.11;102153.53;4979728;28;20068;-84
2023/07/10 06:02:03;;;;;;;13.50;3.05;;;;;;;17.64;95.08;102157.91;4977819;28;20105;-85
2023/07/10 06:04:28;;;;;;;13.13;3.33;;;;;;;17.63;95.45;102150.88;4991089;28;20042;-85
2023/07/10 06:06:53;;;;;;;10.35;2.70;;;;;;;17.65;95.11;102159.59;4977030;28;20371;-84
2023/07/10 06:09:19;;;;;;;4.40;2.00;;;;;;;17.67;94.97;102153.38;4978056;28;20041;-85
2023/07/10 06:11:44;;;;;;;10.43;2.35;;;;;;;17.68;95.50;102150.63;4996008;28;20271;-84
2023/07/10 06:14:10;;;;;;;9.77;2.08;;;;;;;17.70;95.33;102155.84;4991291;28;20140;-84
2023/07/10 06:16:35;;;;;;;5.53;1.70;;;;;;;17.73;95.21;102161.84;4990994;28;20030;-84
2023/07/10 06:19:00;;;;;;;4.05;1.65;;;;;;;17.74;94.45;102150.34;4976933;28;20066;-84
2023/07/10 06:21:26;;;;;;;6.30;1.98;;;;;;;17.76;94.32;102155.56;4970207;28;20030;-84
2023/07/10 06:23:51;;;;;;;5.70;2.38;;;;;;;17.78;93.76;102165.16;4970249;28;20031;-84
2023/07/10 06:26:17;;;;;;;5.07;2.03;;;;;;;17.79;94.04;102161.56;4970331;28;20357;-84
2023/07/10 06:28:42;;;;;;;4.22;1.90;;;;;;;17.80;93.77;102163.28;4980851;28;20233;-84
2023/07/10 06:31:10;;;;;;;3.10;1.67;;;;;;;17.81;93.60;102167.66;4959229;28;20038;-85
2023/07/10 06:33:36;;;;;;;;;;;;;;;17.83;93.02;102171.06;4969763;28;20045;-84
2023/07/10 06:36:04;;;;;;;5.93;1.90;;;;;;;17.84;93.11;102169.28;4980690;28;19989;-84
2023/07/10 06:38:30;;;;;;;3.28;1.50;;;;;;;17.87;92.77;102166.50;4975892;28;20097;-84
2023/07/10 06:40:56;;;;;;;3.42;1.40;;;;;;;17.89;92.28;102177.03;4970961;28;20030;-84
2023/07/10 06:43:22;;;;;;;5.05;1.88;;;;;;;17.90;91.60;102163.72;4992647;28;20206;-84
2023/07/10 06:45:47;;;;;;;1.65;1.25;;;;;;;17.92;91.39;102171.56;4986860;28;20329;-84
2023/07/10 06:48:13;;;;;;;1.80;1.20;;;;;;;17.94;91.00;102173.22;4979542;28;20341;-84
2023/07/10 06:50:38;;;;;;;2.65;1.35;;;;;;;17.96;90.66;102178.44;4973450;28;20034;-84
2023/07/10 06:53:04;;;;;;;7.07;1.85;;;;;;;17.99;90.52;102183.56;4996965;28;20104;-84
2023/07/10 06:55:30;;;;;;;5.22;2.00;;;;;;;17.99;90.41;102181.81;4978108;28;20333;-84
2023/07/10 06:57:56;;;;;;;6.70;2.03;;;;;;;18.02;90.47;102191.38;4970380;28;20062;-84
2023/07/10 07:00:21;;;;;;;9.25;2.40;;;;;;;18.06;90.25;102192.09;4963134;28;20042;-85
2023/07/10 07:02:47;;;;;;;3.42;1.45;;;;;;;18.08;nan;102195.50;4993735;28;20034;-85
2023/07/10 07:05:13;;;;;;;3.83;1.52;;;;;;;18.10;89.57;102197.16;4969608;28;20325;-85
2023/07/10 07:07:41;;;;;;;8.18;1.52;;;;;;;18.13;89.38;102194.34;4972316;28;20050;-85
2023/07/10 07:10:13;;;;;;;3.88;1.90;;;;;;;18.15;88.96;102192.47;4974108;28;20057;-85
2023/07/10 07:12:39;;;;;;;4.22;1.40;;;;;;;18.17;88.66;102200.34;4977877;28;20071;-85
2023/07/10 07:15:06;;;;;;;2.95;1.13;;;;;;;18.19;88.55;102194.03;4999635;28;20041;-85
2023/07/10 07:17:31;;;;;;;3.15;1.42;;;;;;;18.21;87.84;102192.16;4987303;28;20241;-85
2023/07/10 07:19:57;;;;;;;5.45;1.58;;;;;;;18.23;87.62;102192.94;5006523;28;20022;-85
2023/07/10 07:22:22;;;;;;;1.80;1.17;;;;;;;18.26;87.54;102191.06;5008542;28;20108;-85
2023/07/10 07:24:48;;;;;;;1.67;1.10;;;;;;;18.27;86.76;102184.84;4989134;28;20031;-85
2023/07/10 07:27:14;;;;;;;4.13;1.42;;;;;;;18.29;86.71;102185.59;5006288;28;20026;-84
2023/07/10 07:29:39;;;;;;;2.65;1.27;;;;;;;18.32;86.19;102193.38;4988258;28;20340;-85
2023/07/10 07:32:05;;;;;;;3.90;1.63;;;;;;;18.33;85.43;102192.47;4987673;28;20041;-85
2023/07/10 07:34:30;;;;;;;4.68;1.83;;;;;;;18.33;84.35;102190.66;4989854;28;20029;-85
2023/07/10 07:36:56;;;;;;;3.13;1.52;;;;;;;18.34;82.49;102187.06;4989318;28;20201;-85
2023/07/10 07:39:22;;;;;;;2.33;1.40;;;;;;;18.38;83.23;102188.63;4986925;28;20252;-85
2023/07/10 07:41:48;;;;;;;3.47;1.30;;;;;;;18.42;83.47;102194.63;5006655;28;20038;-85
2023/07/10 07:44:13;;;;;;;8.73;1.70;;;;;;;18.45;83.14;102190.97;5007588;28;20034;-84
2023/07/10 07:46:38;;;;;;;2.55;1.13;;;;;;;18.49;83.17;102190.72;5002725;28;20078;-85
2023/07/10 07:49:04;;;;;;;5.45;1.38;;;;;;;18.49;81.87;102185.41;4997468;28;20056;-85
2023/07/10 07:51:30;;;;;;;3.92;1.45;;;;;;;18.52;82.22;102190.56;4996343;28;20030;-85
2023/07/10 07:54:21;;;;;;;9.02;1.65;;;;;;;18.58;81.01;102190.22;4989303;28;20073;-85
2023/07/10 07:56:47;;;;;;;6.05;1.98;;;;;;;18.63;80.74;102199.72;4975099;28;20101;-85
2023/07/10 07:59:13;;;;;;;5.18;1.17;;;;;;;18.65;81.09;102193.41;4997451;28;20093;-85
2023/07/10 08:01:39;;;;;;;3.15;1.23;;;;;;;18.66;80.94;102192.47;4998195;28;20090;-85
2023/07/10 08:04:04;;;;;;;4.15;1.40;;;;;;;18.69;81.13;102187.00;5004197;28;20067;-85
2023/07/10 08:06:32;;;;;;;3.80;1.33;;;;;;;18.71;81.14;102184.28;5005966;28;20361;-85
2023/07/10 08:08:58;;;;;;;1.95;1.08;;;;;;;18.73;81.00;102183.22;4979243;28;20058;-85
2023/07/10 08:11:24;;;;;;;5.20;1.38;;;;;;;18.76;80.86;102190.19;4997325;28;20240;-85
2023/07/10 08:13:49;;;;;;;5.47;1.20;;;;;;;18.78;80.78;102190.97;5000811;28;20045;-85
2023/07/10 08:16:15;;;;;;;10.00;1.85;;;;;;;18.82;80.54;102197.00;4986033;28;20034;-85
2023/07/10 08:18:41;;;;;;;6.97;1.42;;;;;;;18.83;80.58;102193.38;4997392;28;20375;-85
2023/07/10 08:21:09;;;;;;;9.57;2.15;;;;;;;18.86;80.52;102193.22;4988054;28;20519;-85
2023/07/10 08:23:35;;;;;;;5.47;1.98;;;;;;;18.87;80.41;102197.63;4981271;28;20500;-85
2023/07/10 08:26:02;;;;;;;5.90;1.65;;;;;;;18.89;80.46;102196.56;4996489;28;20387;-85
2023/07/10 08:28:27;;;;;;;3.25;1.55;;;;;;;18.93;80.66;102200.78;4979618;28;20237;-85
2023/07/10 08:30:53;;;;;;;3.28;1.10;;;;;;;18.95;80.64;102198.88;4996351;28;20030;-85
2023/07/10 08:33:18;;;;;;;8.63;1.90;;;;;;;18.98;80.11;102190.75;4980370;28;20219;-85
2023/07/10 08:35:55;;;;;;;5.68;1.98;;;;;;;19.01;79.71;102186.22;4996220;28;20261;-85
2023/07/10 08:38:21;;;;;;;9.93;2.03;;;;;;;19.06;80.33;102190.34;4996395;28;20101;-85
2023/07/10 08:40:49;;;;;;;12.70;2.30;;;;;;;19.13;80.44;102196.16;4996804;28;20034;-85
2023/07/10 08:43:17;;;;;;;;;;;;;;;19.17;80.52;102201.25;4997162;28;20030;-85
2023/07/10 08:45:46;;;;;;;7.85;2.85;;;;;;;19.20;80.37;102196.69;4982961;28;20262;-85
2023/07/10 08:48:26;;;;;;;8.10;2.10;;;;;;;19.24;80.45;102199.06;4996550;28;20101;-85
2023/07/10 08:50:51;;;;;;;5.25;1.38;;;;;;;19.24;80.39;102201.75;5006582;28;20060;-85
2023/07/10 08:53:24;;;;;;;3.72;1.50;;;;;;;19.22;80.20;102211.59;4998750;28;20030;-85
2023/07/10 08:56:33;;;;;;;2.03;1.15;;;;;;;19.25;80.23;102213.25;4982728;28;20045;-85
2023/07/10 08:59:09;;;;;;;6.00;1.77;;;;;;;19.27;80.22;102201.56;4953615;28;20301;-85
2023/07/10 09:01:39;;;;;;;5.13;1.73;;;;;;;19.30;80.08;102204.06;5002825;28;20054;-85
2023/07/10 09:04:10;;;;;;;8.93;1.67;;;;;;;19.34;80.14;102200.28;4982522;28;20324;-85
2023/07/10 09:06:40;;;;;;;7.13;2.20;;;;;;;19.39;79.55;102197.34;4995173;28;20038;-85
2023/07/10 09:09:57;;;;;;;3.65;1.25;;;;;;;19.43;79.79;102208.66;4995650;28;20058;-85
2023/07/10 09:12:33;;;;;;;5.05;1.52;;;;;;;19.42;79.73;102206.97;4913480;29;20369;-85
2023/07/10 09:15:28;;;;;;;3.10;1.15;;;;;;;19.41;79.71;102207.91;4988054;28;20344;-85
2023/07/10 09:18:15;;;;;;;2.33;1.13;;;;;;;19.44;79.90;102213.06;4980827;28;20218;-85
2023/07/10 09:20:41;;;;;;;4.50;1.88;;;;;;;19.47;79.42;102211.06;4978570;28;20034;-85
2023/07/10 09:23:31;;;;;;;5.88;1.63;;;;;;;19.53;79.24;102209.88;4995567;28;20046;-85
2023/07/10 09:26:05;;;;;;;1.77;0.95;;;;;;;19.56;79.31;102205.25;4972790;28;20048;-85
2023/07/10 09:28:31;;;;;;;2.17;1.30;;;;;;;19.60;79.12;102205.06;4990265;28;20033;-85
2023/07/10 09:31:09;;;;;;;2.13;1.30;;;;;;;19.63;78.96;102197.78;4999537;28;20295;-85
2023/07/10 09:33:52;;;;;;;6.47;1.35;;;;;;;19.66;78.80;102197.59;4966142;28;20037;-85
2023/07/10 09:36:21;;;;;;;2.15;1.20;;;;;;;19.69;78.44;102204.53;4990083;28;20252;-85
2023/07/10 09:38:49;;;;;;;5.70;1.63;;;;;;;19.73;77.99;102204.28;4995586;28;20034;-85
2023/07/10 09:41:26;;;;;;;3.50;1.20;;;;;;;19.75;78.20;102204.22;4995516;28;20030;-85
2023/07/10 09:44:12;;;;;;;2.60;1.10;;;;;;;19.76;78.18;102197.97;5001715;28;20029;-85
2023/07/10 09:46:38;;;;;;;5.15;1.40;;;;;;;19.82;77.47;102210.88;4998265;28;20030;-85
2023/07/10 09:49:12;;;;;;;2.40;1.10;;;;;;;19.86;78.12;102203.59;4978093;28;20097;-85
2023/07/10 09:51:50;;;;;;;4.40;1.63;;;;;;;19.90;77.75;102208.66;4996655;28;20044;-85
2023/07/10 09:54:16;;;;;;;3.60;1.58;;;;;;;19.93;77.91;102218.25;4977115;28;20033;-85
2023/07/10 09:56:43;;;;;;;5.90;1.60;;;;;;;19.94;76.90;102207.50;5003455;28;20031;-85
2023/07/10 09:59:36;;;;;;;5.22;1.30;;;;;;;20.01;77.30;102201.81;4977604;28;20030;-85
2023/07/10 10:02:16;;;;;;;5.90;1.58;;;;;;;20.07;77.33;102210.31;4995104;28;20361;-85
2023/07/10 10:04:42;;;;;;;4.60;1.52;;;;;;;20.12;77.14;102208.22;4983633;28;20093;-85
2023/07/10 10:07:20;;;;;;;7.05;1.40;;;;;;;20.19;76.94;102205.19;4998119;28;20018;-85
2023/07/10 10:09:46;;;;;;;9.18;1.50;;;;;;;20.23;75.99;102210.25;4994296;28;20046;-85
2023/07/10 10:12:23;;;;;;;4.95;1.52;;;;;;;20.26;76.35;102204.72;4995673;28;20037;-86
2023/07/10 10:15:25;;;;;;;6.30;1.70;;;;;;;20.27;75.81;102205.59;4994741;28;20058;-85
2023/07/10 10:17:53;;;;;;;4.90;1.60;;;;;;;20.27;75.42;102206.47;4942119;28;20062;-85
2023/07/10 10:20:28;;;;;;;3.63;1.33;;;;;;;20.28;75.30;102201.97;4981490;28;20096;-85
2023/07/10 10:22:53;;;;;;;4.00;1.30;;;;;;;20.30;74.96;102214.25;4980898;28;20030;-85
2023/07/10 10:25:28;;;;;;;2.90;0.95;;;;;;;20.32;75.12;102207.03;5007690;28;20141;-85
2023/07/10 10:28:08;;;;;;;10.55;1.90;;;;;;;20.36;75.35;102215.69;4998432;28;20053;-85
2023/07/10 10:30:40;;;;;;;4.28;1.30;;;;;;;20.40;75.11;102216.38;4983620;28;20034;-85
2023/07/10 10:33:11;;;;;;;5.65;1.60;;;;;;;20.42;74.73;102223.28;5014959;28;20079;-85
2023/07/10 10:35:57;;;;;;;6.07;1.52;;;;;;;20.45;72.79;102233.75;4990304;28;20030;-85
2023/07/10 10:38:39;;;;;;;5.57;1.38;;;;;;;20.50;72.61;102231.69;4981304;28;20030;-85
2023/07/10 10:41:32;;;;;;;3.47;1.48;;;;;;;20.51;73.16;102220.06;4992907;28;20030;-85
2023/07/10 10:44:30;;;;;;;3.53;1.15;;;;;;;20.53;73.51;102223.50;4975530;28;20041;-85
2023/07/10 10:47:11;;;;;;;5.50;1.20;;;;;;;20.55;73.54;102231.38;4988831;28;20112;-85
2023/07/10 10:50:03;;;;;;;3.17;1.27;;;;;;;20.57;73.53;102225.97;4999187;28;20049;-86
2023/07/10 10:52:57;;;;;;;1.67;0.90;;;;;;;20.58;73.42;102220.56;5007212;28;20066;-85
2023/07/10 10:55:31;;;;;;;3.90;1.30;;;;;;;20.59;73.17;102230.28;4985295;28;20057;-85
2023/07/10 10:58:47;;;;;;;2.08;1.02;;;;;;;20.61;73.24;102219.53;4997588;28;20101;-85
2023/07/10 11:01:45;;;;;;;2.80;1.20;;;;;;;20.62;72.14;102222.13;4926911;28;20045;-86
2023/07/10 11:04:19;;;;;;;5.10;1.40;;;;;;;20.64;71.67;102216.69;5005592;28;20030;-85
2023/07/10 11:06:46;;;;;;;2.70;1.27;;;;;;;20.66;72.00;102215.63;5000133;28;20048;-86
2023/07/10 11:09:16;;;;;;;4.03;1.10;;;;;;;20.67;72.28;102209.38;4980190;28;20337;-85
2023/07/10 11:11:42;;;;;;;3.30;1.45;;;;;;;20.73;72.07;102209.97;5009287;28;20105;-85
2023/07/10 11:14:09;;;;;;;5.13;1.38;;;;;;;20.76;71.90;102201.78;4980477;28;20305;-86
2023/07/10 11:16:35;;;;;;;5.22;1.27;;;;;;;20.80;71.75;102209.47;5002406;28;20022;-86
2023/07/10 11:19:02;;;;;;;4.18;1.40;;;;;;;20.84;71.79;102204.81;4981763;28;20232;-85
2023/07/10 11:21:30;;;;;;;12.83;1.10;;;;;;;20.87;71.93;102212.63;5011225;28;20420;-84
2023/07/10 11:23:55;;;;;;;4.40;1.38;;;;;;;20.89;71.57;102208.06;4997806;28;20221;-83
2023/07/10 11:26:27;;;;;;;4.78;1.52;;;;;;;20.93;71.82;102206.06;4997572;28;20086;-83
2023/07/10 11:29:01;;;;;;;1.67;1.08;;;;;;;20.96;72.17;102208.53;4997154;28;20080;-83
2023/07/10 11:31:30;;;;;;;5.57;1.50;;;;;;;20.98;71.93;102203.97;5009826;28;20042;-85
2023/07/10 11:34:24;;;;;;;2.55;0.90;;;;;;;21.00;71.66;102202.03;4985286;28;20072;-86
2023/07/10 11:36:50;;;;;;;4.28;1.83;;;;;;;20.99;71.79;102190.56;5002688;28;20332;-85